createdAt,value
2023-06-09T00:04:37.255Z,19.12
2023-06-09T00:09:58.924Z,19.33
2023-06-09T00:19:52.654Z,19.96
2023-06-09T00:51:30.214Z,19.16
2023-06-09T01:28:57.769Z,18.47
2023-06-09T01:34:19.132Z,18.52
2023-06-09T01:44:34.171Z,18.39
2023-06-09T02:00:13.156Z,18.38
2023-06-09T02:15:51.928Z,18.57
2023-06-09T02:40:45.634Z,18.13
2023-06-09T02:45:32.801Z,18.54
2023-06-09T02:50:30.545Z,18.90
2023-06-09T02:55:16.196Z,18.79
2023-06-09T02:59:37.672Z,18.31
2023-06-09T03:04:07.148Z,18.19
2023-06-09T03:08:48.688Z,18.32
2023-06-09T03:13:29.301Z,18.43
2023-06-09T03:18:55.009Z,18.37
2023-06-09T03:22:54.730Z,18.45
2023-06-09T03:37:56.398Z,19.91
2023-06-09T03:50:54.076Z,21.03
2023-06-09T04:30:50.281Z,22.68
2023-06-09T04:36:27.400Z,22.98
2023-06-09T04:52:04.617Z,22.50
2023-06-09T04:57:24.290Z,22.93
2023-06-09T05:12:13.904Z,23.06
2023-06-09T05:41:49.924Z,23.73
2023-06-09T05:46:59.704Z,23.73
2023-06-09T05:52:13.059Z,24.17
2023-06-09T05:57:17.624Z,23.95
2023-06-09T06:07:08.140Z,24.28
2023-06-09T06:11:14.198Z,24.75
2023-06-09T06:15:31.943Z,25.51
2023-06-09T06:19:48.665Z,25.88
2023-06-09T06:28:37.318Z,26.22
2023-06-09T06:33:09.305Z,26.52
2023-06-09T06:37:28.921Z,26.38
2023-06-09T06:41:59.289Z,26.18
2023-06-09T06:46:16.897Z,25.89
2023-06-09T06:55:42.883Z,26.37
2023-06-09T06:59:54.895Z,26.31
2023-06-09T07:04:04.981Z,26.78
2023-06-09T07:08:21.148Z,27.00
2023-06-09T07:12:33.458Z,26.87
2023-06-09T07:16:47.735Z,27.20
2023-06-09T07:20:57.802Z,26.54
2023-06-09T07:25:07.861Z,26.68
2023-06-09T07:29:09.722Z,26.87
2023-06-09T07:33:45.078Z,26.56
2023-06-09T07:37:59.753Z,26.11
2023-06-09T07:42:41.247Z,26.16
2023-06-09T07:46:49.569Z,26.24
2023-06-09T07:51:12.535Z,26.27
2023-06-09T07:55:29.122Z,26.84
2023-06-09T07:59:41.875Z,26.89
2023-06-09T08:03:42.192Z,26.91
2023-06-09T08:18:42.936Z,26.98
2023-06-09T08:23:06.499Z,26.81
2023-06-09T08:27:31.226Z,26.78
2023-06-09T08:31:57.321Z,26.53
2023-06-09T08:36:42.667Z,26.72
2023-06-09T08:41:11.152Z,26.69
2023-06-09T08:45:27.260Z,26.88
2023-06-09T08:49:48.996Z,26.87
2023-06-09T08:54:14.548Z,27.17
2023-06-09T08:58:22.738Z,27.21
2023-06-09T09:02:27.173Z,27.21
2023-06-09T09:11:05.572Z,26.91
2023-06-09T09:20:42.816Z,27.09
2023-06-09T09:30:13.851Z,27.29
2023-06-09T09:35:26.241Z,27.49
2023-06-09T09:39:55.776Z,27.72
2023-06-09T09:44:29.617Z,28.01
2023-06-09T09:48:56.158Z,27.53
2023-06-09T09:54:06.753Z,27.80
2023-06-09T09:58:45.485Z,27.84
2023-06-09T10:04:33.986Z,27.93
2023-06-09T10:08:14.865Z,27.85
2023-06-09T10:17:26.586Z,27.78
2023-06-09T10:27:06.893Z,28.47
2023-06-09T10:56:38.198Z,28.14
2023-06-09T11:01:12.672Z,28.20
2023-06-09T11:11:16.814Z,29.02
2023-06-09T11:16:22.997Z,28.92
2023-06-09T11:21:02.134Z,28.45
2023-06-09T11:25:47.211Z,28.67
2023-06-09T11:41:58.179Z,29.19
2023-06-09T11:47:02.605Z,29.49
2023-06-09T11:56:47.871Z,29.20
2023-06-09T12:02:22.498Z,29.11
2023-06-09T12:07:41.468Z,29.37
2023-06-09T12:12:24.201Z,29.58
2023-06-09T12:17:00.728Z,29.97
2023-06-09T12:27:11.220Z,29.92
2023-06-09T12:36:36.657Z,30.33
2023-06-09T12:41:16.281Z,30.38
2023-06-09T12:56:24.939Z,29.98
2023-06-09T13:01:13.609Z,29.93
2023-06-09T13:10:53.655Z,29.71
2023-06-09T13:15:36.859Z,29.74
2023-06-09T18:43:05.494Z,26.08
2023-06-09T18:47:07.616Z,25.92
2023-06-09T18:51:08.752Z,25.84
2023-06-09T18:55:13.227Z,25.83
2023-06-09T18:59:15.267Z,25.79
2023-06-09T19:03:19.049Z,26.00
2023-06-09T19:07:43.225Z,26.12
